createdAt,value
2018-01-24T00:00:07.310Z,94.20
2018-01-24T00:02:34.961Z,94.30
2018-01-24T00:05:03.315Z,94.60
2018-01-24T00:07:30.919Z,94.60
2018-01-24T00:09:58.488Z,94.30
2018-01-24T00:12:26.097Z,94.40
2018-01-24T00:14:53.666Z,94.40
2018-01-24T00:17:22.046Z,94.50
2018-01-24T00:19:50.428Z,94.50
2018-01-24T00:22:18.829Z,94.80
2018-01-24T00:24:46.437Z,94.80
2018-01-24T00:27:14.055Z,94.80
2018-01-24T00:29:41.652Z,94.90
2018-01-24T00:32:10.009Z,94.70
2018-01-24T00:34:37.602Z,94.60
2018-01-24T00:37:05.192Z,95.00
2018-01-24T00:39:33.646Z,94.90
2018-01-24T00:42:02.010Z,94.80
2018-01-24T00:44:29.780Z,94.80
2018-01-24T00:46:58.139Z,94.60
2018-01-24T00:49:25.730Z,94.50
2018-01-24T00:51:53.328Z,95.00
2018-01-24T00:54:20.926Z,95.30
2018-01-24T00:56:48.539Z,95.40
2018-01-24T00:59:16.880Z,95.30
2018-01-24T01:01:44.486Z,95.30
2018-01-24T01:04:12.066Z,95.30
2018-01-24T01:06:39.665Z,94.90
2018-01-24T01:09:07.262Z,95.20
2018-01-24T01:11:34.876Z,94.90
2018-01-24T01:14:02.456Z,95.00
2018-01-24T01:16:30.041Z,95.40
2018-01-24T01:18:57.648Z,95.30
2018-01-24T01:21:25.278Z,95.40
2018-01-24T01:23:52.872Z,95.20
2018-01-24T01:26:20.476Z,95.00
2018-01-24T01:28:48.077Z,95.20
2018-01-24T01:31:15.668Z,95.10
2018-01-24T01:33:43.256Z,94.80
2018-01-24T01:36:11.633Z,95.20
2018-01-24T01:38:40.209Z,94.80
2018-01-24T01:41:08.558Z,94.90
2018-01-24T01:43:36.146Z,94.90
2018-01-24T01:46:03.781Z,95.10
2018-01-24T01:48:32.179Z,95.10
2018-01-24T01:51:00.409Z,95.00
2018-01-24T01:53:28.016Z,94.80
2018-01-24T01:55:55.626Z,95.20
2018-01-24T01:58:23.388Z,94.90
2018-01-24T02:00:50.976Z,95.10
2018-01-24T02:03:18.645Z,95.10
2018-01-24T02:05:46.233Z,95.10
2018-01-24T02:08:14.579Z,95.40
2018-01-24T02:10:42.176Z,95.40
2018-01-24T02:13:10.678Z,95.30
2018-01-24T02:15:38.592Z,95.30
2018-01-24T02:18:06.225Z,95.50
2018-01-24T02:20:33.803Z,95.40
2018-01-24T02:23:01.398Z,95.90
2018-01-24T02:25:29.757Z,96.10
2018-01-24T02:27:57.372Z,96.10
2018-01-24T02:30:24.942Z,96.10
2018-01-24T02:32:52.557Z,95.90
2018-01-24T02:35:20.904Z,95.50
2018-01-24T02:37:48.485Z,95.50
2018-01-24T02:40:16.135Z,95.70
2018-01-24T02:42:43.733Z,95.60
2018-01-24T02:45:11.325Z,95.60
2018-01-24T02:47:38.917Z,95.80
2018-01-24T02:50:06.572Z,95.70
2018-01-24T02:52:34.152Z,95.50
2018-01-24T02:55:01.752Z,95.40
2018-01-24T02:57:29.329Z,95.60
2018-01-24T02:59:56.938Z,95.80
2018-01-24T03:02:25.558Z,95.70
2018-01-24T03:04:53.153Z,95.70
2018-01-24T03:07:20.753Z,95.90
2018-01-24T03:09:49.113Z,95.90
2018-01-24T03:12:17.524Z,95.90
2018-01-24T03:14:45.201Z,95.80
2018-01-24T03:17:12.801Z,96.10
2018-01-24T03:19:40.372Z,96.20
2018-01-24T03:22:07.965Z,96.20
2018-01-24T03:24:35.534Z,96.20
2018-01-24T03:27:03.120Z,96.30
2018-01-24T03:29:30.716Z,96.20
2018-01-24T03:31:59.076Z,96.40
2018-01-24T03:34:26.670Z,96.20
2018-01-24T03:36:55.046Z,96.70
2018-01-24T03:39:23.421Z,97.20
2018-01-24T03:41:51.829Z,97.20
2018-01-24T03:44:19.434Z,97.20
2018-01-24T03:46:47.025Z,97.20
2018-01-24T03:49:15.381Z,96.90
2018-01-24T03:51:42.956Z,96.90
2018-01-24T03:54:10.549Z,97.00
2018-01-24T03:56:38.172Z,96.90
2018-01-24T03:59:06.530Z,97.20
2018-01-24T04:01:34.110Z,97.20
2018-01-24T04:04:02.473Z,97.30
2018-01-24T04:06:30.045Z,97.30
2018-01-24T04:08:58.541Z,97.40
2018-01-24T04:11:26.979Z,97.20
2018-01-24T04:13:54.554Z,97.20
2018-01-24T04:16:22.145Z,97.00
2018-01-24T04:18:50.485Z,97.10
2018-01-24T04:21:18.081Z,97.00
2018-01-24T04:23:46.416Z,97.10
2018-01-24T04:26:14.025Z,97.10
2018-01-24T04:28:41.632Z,97.10
2018-01-24T04:31:09.219Z,97.00
2018-01-24T04:33:36.808Z,97.00
2018-01-24T04:36:04.384Z,97.00
2018-01-24T04:38:31.993Z,97.00
2018-01-24T04:40:59.584Z,97.20
2018-01-24T04:43:27.258Z,97.40
2018-01-24T04:45:54.845Z,97.00
2018-01-24T04:48:22.438Z,97.20
2018-01-24T04:50:50.019Z,97.30
2018-01-24T04:53:18.419Z,96.90
2018-01-24T04:55:46.013Z,96.90
2018-01-24T04:58:13.602Z,96.40
2018-01-24T05:00:41.182Z,96.30
2018-01-24T05:03:09.550Z,96.90
2018-01-24T05:05:37.953Z,96.60
2018-01-24T05:08:05.549Z,96.60
2018-01-24T05:10:33.129Z,96.60
2018-01-24T05:13:00.748Z,96.20
2018-01-24T05:15:28.338Z,96.70
2018-01-24T05:17:55.951Z,96.50
2018-01-24T05:20:30.141Z,96.70
2018-01-24T05:22:58.533Z,96.90
2018-01-24T05:25:26.116Z,96.90
2018-01-24T05:27:53.776Z,96.90
2018-01-24T05:30:21.368Z,96.80
2018-01-24T05:32:48.947Z,97.00
2018-01-24T05:35:16.569Z,97.20
2018-01-24T05:37:44.161Z,97.30
2018-01-24T05:40:11.776Z,97.10
2018-01-24T05:42:39.364Z,97.10
2018-01-24T05:45:06.965Z,96.60
2018-01-24T05:47:35.324Z,96.80
2018-01-24T05:50:02.884Z,96.80
2018-01-24T05:52:30.492Z,97.00
2018-01-24T05:54:58.111Z,96.80
2018-01-24T05:57:25.769Z,96.80
2018-01-24T05:59:53.349Z,97.00
2018-01-24T06:02:21.725Z,96.60
2018-01-24T06:04:50.099Z,96.80
2018-01-24T06:07:17.689Z,96.80
2018-01-24T06:09:45.276Z,96.90
2018-01-24T06:12:12.885Z,96.90
2018-01-24T06:14:41.235Z,96.70
2018-01-24T06:17:08.855Z,96.60
2018-01-24T06:19:36.477Z,96.70
2018-01-24T06:22:04.058Z,96.70
2018-01-24T06:24:31.732Z,96.70
2018-01-24T06:26:59.313Z,96.80
2018-01-24T06:29:26.925Z,96.30
2018-01-24T06:31:54.625Z,96.60
2018-01-24T06:34:22.349Z,96.80
2018-01-24T06:36:50.713Z,96.70
2018-01-24T06:39:18.393Z,96.70
2018-01-24T06:41:46.746Z,96.70
2018-01-24T06:44:14.409Z,96.70
2018-01-24T06:46:42.015Z,96.40
2018-01-24T06:49:09.625Z,96.50
2018-01-24T06:51:37.220Z,96.80
2018-01-24T06:54:05.577Z,97.00
2018-01-24T06:56:33.180Z,97.00
2018-01-24T06:59:00.924Z,96.90
2018-01-24T07:01:29.288Z,97.00
2018-01-24T07:03:57.631Z,97.00
2018-01-24T07:06:25.246Z,97.00
2018-01-24T07:08:52.838Z,96.90
2018-01-24T07:11:20.432Z,97.00
2018-01-24T07:14:00.165Z,96.90
2018-01-24T07:16:27.797Z,97.20
2018-01-24T07:18:55.368Z,97.30
2018-01-24T07:21:22.973Z,97.30
2018-01-24T07:23:51.316Z,97.60
2018-01-24T07:26:18.945Z,97.60
2018-01-24T07:28:46.519Z,97.60
2018-01-24T07:31:14.114Z,97.40
2018-01-24T07:33:41.744Z,97.10
2018-01-24T07:36:09.328Z,96.60
2018-01-24T07:38:36.932Z,96.80
2018-01-24T07:41:04.517Z,96.60
2018-01-24T07:43:32.124Z,96.90
2018-01-24T07:45:59.708Z,97.00
2018-01-24T07:48:28.077Z,96.70
2018-01-24T07:50:56.425Z,96.80
2018-01-24T07:53:24.089Z,96.80
2018-01-24T07:55:51.694Z,97.00
2018-01-24T07:58:19.288Z,96.70
2018-01-24T08:00:46.883Z,96.80
2018-01-24T08:03:14.511Z,96.80
2018-01-24T08:05:42.105Z,97.10
2018-01-24T08:08:09.677Z,97.10
2018-01-24T08:10:38.057Z,97.30
2018-01-24T08:13:06.465Z,97.40
2018-01-24T08:15:34.068Z,97.40
2018-01-24T08:18:01.701Z,97.80
2018-01-24T08:20:29.289Z,97.70
2018-01-24T08:22:56.883Z,97.90
2018-01-24T08:25:25.246Z,98.40
2018-01-24T08:27:53.598Z,98.60
2018-01-24T08:30:22.307Z,98.50
2018-01-24T08:32:49.909Z,99.10
2018-01-24T08:35:17.485Z,99.10
2018-01-24T08:37:45.205Z,99.10
2018-01-24T08:40:13.549Z,99.30
2018-01-24T08:42:41.220Z,99.20
2018-01-24T08:45:08.802Z,99.20
2018-01-24T08:47:37.164Z,99.10
2018-01-24T08:50:04.733Z,99.10
2018-01-24T08:52:33.101Z,99.30
2018-01-24T08:55:00.672Z,99.20
2018-01-24T08:57:29.034Z,99.20
2018-01-24T08:59:56.661Z,99.20
2018-01-24T09:02:24.245Z,99.00
2018-01-24T09:04:51.846Z,98.90
2018-01-24T09:07:20.284Z,98.70
2018-01-24T09:09:48.434Z,98.70
2018-01-24T09:12:16.036Z,98.60
2018-01-24T09:14:43.623Z,98.30
2018-01-24T09:17:11.249Z,98.30
2018-01-24T09:19:38.828Z,98.00
2018-01-24T09:22:07.197Z,97.80
2018-01-24T09:24:34.777Z,97.80
2018-01-24T09:27:03.141Z,97.70
2018-01-24T09:29:31.807Z,97.50
2018-01-24T09:31:59.413Z,97.50
2018-01-24T09:34:27.017Z,97.50
2018-01-24T09:36:54.631Z,97.20
2018-01-24T09:39:22.536Z,97.30
2018-01-24T09:41:50.336Z,97.10
2018-01-24T09:44:18.852Z,96.70
2018-01-24T09:46:46.453Z,96.70
2018-01-24T09:49:14.033Z,96.60
2018-01-24T09:51:41.773Z,96.60
2018-01-24T09:54:09.356Z,96.60
2018-01-24T09:56:37.701Z,97.20
2018-01-24T09:59:05.303Z,96.90
2018-01-24T10:01:33.961Z,97.00
2018-01-24T10:04:02.381Z,97.20
2018-01-24T10:06:30.737Z,97.30
2018-01-24T10:08:58.341Z,97.30
2018-01-24T10:11:25.940Z,97.50
2018-01-24T10:13:53.541Z,97.50
2018-01-24T10:16:21.908Z,98.10
2018-01-24T10:18:49.493Z,98.10
2018-01-24T10:21:17.109Z,97.70
2018-01-24T10:23:44.761Z,97.50
2018-01-24T10:26:12.382Z,97.10
2018-01-24T10:28:39.952Z,97.40
2018-01-24T10:31:07.553Z,97.20
2018-01-24T10:33:35.222Z,97.10
2018-01-24T10:36:02.837Z,97.30
2018-01-24T10:38:30.422Z,96.90
2018-01-24T10:40:58.064Z,96.80
2018-01-24T10:43:25.643Z,96.70
2018-01-24T10:45:54.805Z,96.80
2018-01-24T10:48:22.547Z,96.80
2018-01-24T10:50:50.148Z,96.70
2018-01-24T10:53:17.738Z,97.00
2018-01-24T10:55:45.353Z,97.10
2018-01-24T10:58:12.974Z,97.00
2018-01-24T11:00:41.321Z,97.70
2018-01-24T11:03:09.049Z,97.70
2018-01-24T11:05:36.649Z,97.50
2018-01-24T11:08:04.213Z,97.80
2018-01-24T11:10:31.826Z,97.90
2018-01-24T11:12:59.465Z,97.70
2018-01-24T11:15:27.804Z,97.80
2018-01-24T11:17:55.409Z,97.80
2018-01-24T11:20:23.024Z,97.70
2018-01-24T11:22:50.853Z,97.60
2018-01-24T11:25:18.427Z,97.80
2018-01-24T11:27:46.029Z,97.60
2018-01-24T11:30:13.606Z,97.80
2018-01-24T11:32:41.970Z,97.70
2018-01-24T11:35:09.549Z,97.70
2018-01-24T11:37:37.966Z,97.90
2018-01-24T11:40:05.552Z,97.90
2018-01-24T11:42:33.161Z,97.80
2018-01-24T11:45:00.828Z,97.40
2018-01-24T11:50:01.634Z,97.00
2018-01-24T11:52:29.365Z,97.00
2018-01-24T11:54:57.036Z,97.30
2018-01-24T11:57:24.609Z,97.00
2018-01-24T11:59:52.196Z,96.70
2018-01-24T12:02:20.546Z,96.60
2018-01-24T12:04:48.909Z,97.00
2018-01-24T12:07:16.481Z,96.90
2018-01-24T12:09:44.073Z,96.70
2018-01-24T12:12:12.417Z,97.20
2018-01-24T12:14:39.996Z,97.20
2018-01-24T12:17:07.928Z,97.30
2018-01-24T12:19:35.566Z,97.20
2018-01-24T12:22:03.163Z,96.40
2018-01-24T12:24:30.762Z,97.00
2018-01-24T12:26:59.117Z,97.20
2018-01-24T12:29:26.706Z,97.20
2018-01-24T12:31:55.069Z,97.60
2018-01-24T12:34:23.410Z,97.50
2018-01-24T12:36:50.998Z,97.50
2018-01-24T12:39:18.612Z,97.50
2018-01-24T12:41:46.201Z,97.40
2018-01-24T12:44:13.800Z,97.50
2018-01-24T12:46:42.153Z,97.60
2018-01-24T12:49:09.745Z,97.60
2018-01-24T12:51:38.092Z,97.20
2018-01-24T12:54:05.700Z,97.10
2018-01-24T12:56:33.341Z,97.50
2018-01-24T12:59:00.953Z,97.20
2018-01-24T13:01:28.647Z,97.50
2018-01-24T13:03:57.111Z,97.40
2018-01-24T13:06:24.726Z,97.30
2018-01-24T13:08:52.304Z,97.20
2018-01-24T13:11:21.437Z,96.80
2018-01-24T13:13:49.018Z,96.70
2018-01-24T13:16:17.380Z,96.00
2018-01-24T13:18:45.054Z,96.00
2018-01-24T13:21:13.667Z,95.50
2018-01-24T13:23:41.244Z,95.50
2018-01-24T13:26:08.834Z,95.90
2018-01-24T13:28:36.505Z,95.70
2018-01-24T13:31:04.080Z,95.80
2018-01-24T13:33:33.269Z,95.70
2018-01-24T13:36:01.609Z,95.70
2018-01-24T13:38:29.200Z,95.70
2018-01-24T13:40:56.792Z,95.70
2018-01-24T13:43:24.429Z,95.20
2018-01-24T13:45:52.781Z,94.90
2018-01-24T13:48:20.350Z,94.90
2018-01-24T13:50:47.947Z,94.90
2018-01-24T13:53:15.527Z,95.00
2018-01-24T13:55:43.127Z,94.90
2018-01-24T13:58:10.700Z,94.90
2018-01-24T14:00:39.122Z,94.90
2018-01-24T14:03:06.702Z,95.10
2018-01-24T14:05:34.297Z,94.70
2018-01-24T14:08:01.872Z,94.50
2018-01-24T14:10:30.800Z,94.90
2018-01-24T14:12:58.413Z,94.80
2018-01-24T14:15:26.044Z,94.90
2018-01-24T14:17:53.655Z,94.70
2018-01-24T14:20:22.002Z,94.80
2018-01-24T14:22:49.576Z,94.80
2018-01-24T14:25:17.940Z,94.90
2018-01-24T14:27:45.535Z,94.90
2018-01-24T14:30:13.143Z,94.60
2018-01-24T14:32:40.771Z,94.40
2018-01-24T14:35:08.364Z,94.40
2018-01-24T14:37:35.957Z,94.00
2018-01-24T14:40:04.306Z,93.90
2018-01-24T14:42:32.097Z,93.90
2018-01-24T14:45:00.537Z,93.90
2018-01-24T14:47:28.423Z,94.10
2018-01-24T14:49:56.021Z,93.90
2018-01-24T14:52:23.985Z,93.80
2018-01-24T14:54:52.350Z,94.30
2018-01-24T14:57:20.684Z,94.70
2018-01-24T14:59:48.269Z,94.70
2018-01-24T15:02:17.410Z,95.00
2018-01-24T15:04:45.748Z,95.30
2018-01-24T15:07:13.361Z,95.20
2018-01-24T15:09:42.308Z,95.50
2018-01-24T15:12:09.910Z,95.40
2018-01-24T15:14:37.492Z,95.70
2018-01-24T15:17:05.068Z,95.70
2018-01-24T15:19:32.669Z,96.20
2018-01-24T15:22:00.354Z,96.30
2018-01-24T15:24:27.953Z,96.40
2018-01-24T15:26:55.573Z,96.80
2018-01-24T15:29:23.152Z,96.80
2018-01-24T15:31:50.733Z,97.00
2018-01-24T15:34:18.418Z,96.90
2018-01-24T15:36:46.814Z,96.80
2018-01-24T15:39:15.177Z,96.80
2018-01-24T15:41:43.513Z,96.90
2018-01-24T15:44:11.892Z,96.90
2018-01-24T15:46:39.525Z,96.80
2018-01-24T15:49:07.125Z,96.60
2018-01-24T15:51:34.701Z,96.70
2018-01-24T15:54:02.344Z,96.90
2018-01-24T15:56:30.692Z,96.50
2018-01-24T15:58:58.302Z,96.50
2018-01-24T16:01:25.894Z,96.40
2018-01-24T16:03:53.508Z,96.30
2018-01-24T16:06:21.100Z,96.30
2018-01-24T16:08:49.492Z,96.70
2018-01-24T16:11:17.856Z,96.50
2018-01-24T16:13:46.200Z,96.10
2018-01-24T16:16:13.802Z,96.10
2018-01-24T16:18:42.937Z,96.30
2018-01-24T16:21:10.546Z,96.30
2018-01-24T16:23:38.133Z,96.20
2018-01-24T16:26:05.716Z,96.30
2018-01-24T16:28:33.324Z,96.60
2018-01-24T16:31:00.924Z,96.60
2018-01-24T16:33:28.529Z,96.80
2018-01-24T16:35:56.109Z,97.40
2018-01-24T16:38:24.477Z,96.70
2018-01-24T16:40:52.158Z,96.70
2018-01-24T16:43:20.525Z,96.80
2018-01-24T16:45:48.918Z,97.40
2018-01-24T16:48:16.514Z,97.10
2018-01-24T16:50:44.158Z,97.60
2018-01-24T16:53:11.745Z,97.00
2018-01-24T16:55:39.349Z,96.90
2018-01-24T16:58:07.830Z,97.00
2018-01-24T17:00:36.253Z,97.30
2018-01-24T17:03:04.640Z,97.80
2018-01-24T17:05:32.240Z,97.80
2018-01-24T17:07:59.949Z,98.00
2018-01-24T17:10:27.542Z,97.80
2018-01-24T17:12:55.164Z,97.20
2018-01-24T17:15:22.754Z,97.50
2018-01-24T17:17:50.365Z,97.70
2018-01-24T17:20:17.953Z,97.20
2018-01-24T17:22:45.585Z,97.00
2018-01-24T17:25:13.936Z,97.80
2018-01-24T17:27:41.510Z,97.80
2018-01-24T17:30:09.923Z,97.50
2018-01-24T17:32:37.513Z,97.50
2018-01-24T17:35:05.146Z,97.10
2018-01-24T17:37:32.746Z,97.00
2018-01-24T17:40:00.356Z,97.00
2018-01-24T17:42:27.940Z,97.30
2018-01-24T17:44:55.550Z,96.90
2018-01-24T17:47:23.910Z,97.60
2018-01-24T17:49:51.521Z,97.60
2018-01-24T17:52:19.176Z,97.60
2018-01-24T17:54:46.767Z,97.40
2018-01-24T17:57:14.408Z,97.40
2018-01-24T17:59:43.224Z,96.70
2018-01-24T18:02:10.809Z,96.80
2018-01-24T18:04:38.520Z,97.10
2018-01-24T18:07:06.100Z,96.60
2018-01-24T18:09:33.796Z,97.10
2018-01-24T18:12:01.401Z,96.90
2018-01-24T18:14:29.001Z,96.80
2018-01-24T18:16:56.609Z,96.70
2018-01-24T18:19:24.215Z,96.80
2018-01-24T18:21:51.821Z,96.60
2018-01-24T18:24:20.224Z,96.00
2018-01-24T18:26:48.192Z,96.00
2018-01-24T18:29:15.834Z,96.70
2018-01-24T18:31:44.233Z,96.80
2018-01-24T18:34:11.890Z,96.70
2018-01-24T18:36:39.516Z,96.60
2018-01-24T18:39:07.874Z,96.70
2018-01-24T18:41:35.474Z,96.70
2018-01-24T18:44:04.074Z,96.70
2018-01-24T18:46:32.413Z,96.40
2018-01-24T18:49:00.015Z,96.40
2018-01-24T18:51:27.730Z,96.40
2018-01-24T18:53:55.323Z,96.30
2018-01-24T18:56:22.937Z,96.40
2018-01-24T18:58:50.518Z,96.30
2018-01-24T19:01:18.904Z,96.30
2018-01-24T19:03:47.261Z,96.50
2018-01-24T19:06:14.940Z,96.50
2018-01-24T19:08:43.446Z,96.60
2018-01-24T19:11:11.034Z,96.50
2018-01-24T19:13:38.644Z,96.10
2018-01-24T19:16:07.010Z,96.20
2018-01-24T19:18:34.617Z,96.20
2018-01-24T19:21:02.250Z,96.20
2018-01-24T19:23:30.630Z,96.30
2018-01-24T19:25:58.977Z,96.40
2018-01-24T19:28:26.568Z,96.40
2018-01-24T19:30:54.971Z,96.90
2018-01-24T19:33:22.572Z,96.90
2018-01-24T19:35:50.199Z,97.00
2018-01-24T19:38:17.784Z,96.60
2018-01-24T19:40:45.394Z,96.60
2018-01-24T19:43:13.757Z,96.50
2018-01-24T19:45:42.222Z,96.30
2018-01-24T19:48:09.830Z,96.30
2018-01-24T19:50:37.413Z,96.50
2018-01-24T19:53:05.015Z,96.60
2018-01-24T19:55:33.382Z,96.50
2018-01-24T19:58:00.977Z,96.40
2018-01-24T20:00:28.571Z,96.50
2018-01-24T20:02:56.213Z,96.10
2018-01-24T20:05:23.813Z,96.50
2018-01-24T20:07:51.418Z,96.80
2018-01-24T20:10:19.809Z,96.80
2018-01-24T20:12:47.402Z,96.80
2018-01-24T20:15:15.004Z,96.90
2018-01-24T20:17:43.373Z,96.50
2018-01-24T20:20:10.981Z,96.50
2018-01-24T20:22:39.553Z,96.30
2018-01-24T20:25:07.148Z,96.50
2018-01-24T20:27:34.724Z,97.00
2018-01-24T20:30:02.335Z,96.50
2018-01-24T20:32:29.914Z,96.30
2018-01-24T20:34:57.520Z,96.20
2018-01-24T20:37:25.901Z,96.30
2018-01-24T20:39:54.273Z,96.20
2018-01-24T20:42:21.865Z,96.20
2018-01-24T20:44:49.487Z,96.30
2018-01-24T20:47:17.084Z,96.40
2018-01-24T20:49:44.688Z,96.40
2018-01-24T20:52:12.332Z,96.10
2018-01-24T20:54:39.920Z,96.00
2018-01-24T20:57:07.519Z,95.90
2018-01-24T20:59:35.128Z,96.00
2018-01-24T21:02:02.724Z,96.20
2018-01-24T21:04:31.145Z,96.30
2018-01-24T21:06:58.756Z,96.30
2018-01-24T21:09:26.347Z,96.20
2018-01-24T21:11:53.959Z,96.50
2018-01-24T21:14:21.565Z,96.40
2018-01-24T21:16:49.170Z,96.40
2018-01-24T21:19:16.785Z,96.40
2018-01-24T21:21:44.391Z,96.20
2018-01-24T21:24:12.016Z,96.20
2018-01-24T21:26:39.654Z,96.10
2018-01-24T21:29:29.695Z,96.20
2018-01-24T21:32:09.899Z,96.00
2018-01-24T21:34:50.074Z,96.10
2018-01-24T21:37:17.708Z,96.10
2018-01-24T21:39:46.071Z,96.10
2018-01-24T21:42:13.760Z,96.00
2018-01-24T21:44:42.131Z,96.30
2018-01-24T21:47:10.498Z,96.50
2018-01-24T21:49:38.097Z,96.50
2018-01-24T21:52:06.450Z,96.10
2018-01-24T21:54:34.793Z,96.30
2018-01-24T21:57:02.385Z,96.30
2018-01-24T21:59:30.745Z,96.80
2018-01-24T22:01:58.352Z,96.80
2018-01-24T22:04:25.989Z,96.90
2018-01-24T22:06:54.437Z,97.10
2018-01-24T22:09:22.058Z,97.10
2018-01-24T22:11:49.673Z,96.70
2018-01-24T22:14:18.041Z,96.70
2018-01-24T22:16:45.668Z,96.70
2018-01-24T22:19:13.285Z,96.70
2018-01-24T22:21:41.652Z,96.50
2018-01-24T22:24:09.276Z,96.50
2018-01-24T22:26:36.894Z,96.40
2018-01-24T22:29:04.510Z,96.20
2018-01-24T22:31:32.172Z,96.20
2018-01-24T22:33:59.781Z,96.50
2018-01-24T22:36:27.375Z,96.80
2018-01-24T22:38:54.959Z,96.70
2018-01-24T22:41:22.541Z,97.00
2018-01-24T22:43:50.916Z,96.70
2018-01-24T22:46:19.298Z,96.70
2018-01-24T22:48:47.644Z,96.70
2018-01-24T22:51:20.913Z,96.70
2018-01-24T22:53:48.519Z,96.70
2018-01-24T22:56:16.130Z,96.50
2018-01-24T22:58:43.707Z,96.50
2018-01-24T23:01:11.316Z,96.20
2018-01-24T23:03:39.669Z,95.90
2018-01-24T23:06:07.282Z,95.90
2018-01-24T23:08:34.858Z,96.00
2018-01-24T23:11:02.464Z,96.20
2018-01-24T23:13:30.817Z,95.90
2018-01-24T23:15:58.422Z,95.90
2018-01-24T23:18:26.126Z,96.10
2018-01-24T23:20:53.728Z,96.30
2018-01-24T23:23:22.102Z,96.00
2018-01-24T23:25:50.444Z,96.60
2018-01-24T23:28:18.122Z,96.30
2018-01-24T23:30:45.705Z,96.30
2018-01-24T23:33:13.314Z,96.20
2018-01-24T23:35:40.966Z,95.90
2018-01-24T23:38:08.569Z,96.00
2018-01-24T23:40:36.157Z,96.00
2018-01-24T23:43:04.565Z,96.00
2018-01-24T23:45:32.173Z,96.00
2018-01-24T23:47:59.792Z,96.30
2018-01-24T23:50:27.400Z,96.20
2018-01-24T23:52:54.972Z,96.10
2018-01-24T23:55:23.333Z,95.90
2018-01-24T23:57:50.944Z,95.90
